createdAt,value
2022-12-08T00:01:20.957Z,25.15
2022-12-08T00:03:48.570Z,26.00
2022-12-08T00:06:44.819Z,23.60
2022-12-08T00:09:22.664Z,24.92
2022-12-08T00:11:56.101Z,23.42
2022-12-08T00:14:25.180Z,23.70
2022-12-08T00:16:52.408Z,24.03
2022-12-08T00:19:19.554Z,23.85
2022-12-08T00:21:46.720Z,22.15
2022-12-08T00:24:13.706Z,23.12
2022-12-08T00:26:40.763Z,24.08
2022-12-08T00:29:10.929Z,24.13
2022-12-08T00:31:41.536Z,23.92
2022-12-08T00:34:08.625Z,23.45
2022-12-08T00:36:35.594Z,21.45
2022-12-08T00:39:02.868Z,22.13
2022-12-08T00:41:48.266Z,20.47
2022-12-08T00:44:18.987Z,19.52
2022-12-08T00:46:46.831Z,18.05
2022-12-08T00:49:14.167Z,18.02
2022-12-08T00:51:41.739Z,19.45
2022-12-08T00:54:09.046Z,17.47
2022-12-08T00:56:36.025Z,18.25
2022-12-08T00:59:04.675Z,20.85
2022-12-08T01:01:32.219Z,22.33
2022-12-08T01:04:06.192Z,19.17
2022-12-08T01:06:35.608Z,17.50
2022-12-08T01:09:08.188Z,18.83
2022-12-08T01:11:36.307Z,17.10
2022-12-08T01:14:03.315Z,18.00
2022-12-08T01:16:33.541Z,18.10
2022-12-08T01:19:01.198Z,16.63
2022-12-08T01:21:28.427Z,16.42
2022-12-08T01:23:56.039Z,15.25
2022-12-08T01:26:23.165Z,15.88
2022-12-08T01:28:50.748Z,15.93
2022-12-08T01:31:21.923Z,15.93
2022-12-08T01:33:49.370Z,15.80
2022-12-08T01:36:25.851Z,15.95
2022-12-08T01:38:54.266Z,15.90
2022-12-08T01:41:24.341Z,14.90
2022-12-08T01:44:01.814Z,15.53
2022-12-08T01:46:31.292Z,14.60
2022-12-08T01:49:12.408Z,16.23
2022-12-08T01:52:21.939Z,14.85
2022-12-08T01:54:53.909Z,14.57
2022-12-08T01:57:29.578Z,15.87
2022-12-08T02:00:08.754Z,16.48
2022-12-08T02:02:53.932Z,15.95
2022-12-08T02:05:32.037Z,17.40
2022-12-08T02:08:01.488Z,16.00
2022-12-08T02:10:30.643Z,14.57
2022-12-08T02:12:58.909Z,15.63
2022-12-08T02:15:54.731Z,14.25
2022-12-08T02:18:34.557Z,14.50
2022-12-08T02:21:29.293Z,15.13
2022-12-08T02:24:18.071Z,14.40
2022-12-08T02:27:19.034Z,13.88
2022-12-08T02:29:58.233Z,15.32
2022-12-08T02:32:46.405Z,15.48
2022-12-08T02:35:34.213Z,14.75
2022-12-08T02:38:08.549Z,15.63
2022-12-08T02:41:03.014Z,15.57
2022-12-08T02:43:38.273Z,15.20
2022-12-08T02:46:22.726Z,15.80
2022-12-08T02:48:51.569Z,16.55
2022-12-08T02:51:19.845Z,17.33
2022-12-08T02:53:47.187Z,17.00
2022-12-08T02:57:00.438Z,17.85
2022-12-08T03:00:02.175Z,15.23
2022-12-08T03:02:32.468Z,15.80
2022-12-08T03:05:06.679Z,16.17
2022-12-08T03:07:47.237Z,15.45
2022-12-08T03:10:25.793Z,14.95
2022-12-08T03:13:01.183Z,15.82
2022-12-08T03:15:31.032Z,14.55
2022-12-08T03:17:59.079Z,14.23
2022-12-08T03:20:30.050Z,13.48
2022-12-08T03:23:00.012Z,13.68
2022-12-08T03:25:32.314Z,12.50
2022-12-08T03:27:59.754Z,13.23
2022-12-08T03:30:30.816Z,12.43
2022-12-08T03:33:32.065Z,11.60
2022-12-08T03:36:01.840Z,12.55
2022-12-08T03:38:38.141Z,12.80
2022-12-08T03:41:20.241Z,12.73
2022-12-08T03:43:51.565Z,12.80
2022-12-08T03:48:47.117Z,14.50
2022-12-08T03:51:14.869Z,15.35
2022-12-08T03:53:42.047Z,14.15
2022-12-08T03:56:15.436Z,14.17
2022-12-08T03:58:43.806Z,13.82
2022-12-08T04:01:11.239Z,14.52
2022-12-08T04:03:38.217Z,14.00
2022-12-08T04:06:05.565Z,13.95
2022-12-08T04:08:32.513Z,14.50
2022-12-08T04:10:59.388Z,16.80
2022-12-08T04:13:26.318Z,19.80
2022-12-08T04:15:53.163Z,19.55
2022-12-08T04:18:20.150Z,19.27
2022-12-08T04:20:46.999Z,19.40
2022-12-08T04:23:13.973Z,17.48
2022-12-08T04:25:41.057Z,16.55
2022-12-08T04:28:07.972Z,15.10
2022-12-08T04:30:35.039Z,15.40
2022-12-08T04:33:01.999Z,16.73
2022-12-08T04:35:28.901Z,15.23
2022-12-08T04:37:55.839Z,14.77
2022-12-08T04:40:22.932Z,14.27
2022-12-08T04:42:49.889Z,14.52
2022-12-08T04:45:16.829Z,14.87
2022-12-08T04:47:43.741Z,15.07
2022-12-08T04:50:10.816Z,15.65
2022-12-08T04:52:37.728Z,15.60
2022-12-08T04:55:04.973Z,15.82
2022-12-08T04:57:31.819Z,15.63
2022-12-08T04:59:59.089Z,15.38
2022-12-08T05:02:26.331Z,14.63
2022-12-08T05:04:53.258Z,13.85
2022-12-08T05:07:20.118Z,15.90
2022-12-08T05:09:47.004Z,17.00
2022-12-08T05:12:13.898Z,15.73
2022-12-08T05:14:40.731Z,14.23
2022-12-08T05:17:09.765Z,13.55
2022-12-08T05:19:42.048Z,12.65
2022-12-08T05:22:09.037Z,13.07
2022-12-08T05:24:35.933Z,12.88
2022-12-08T05:27:03.047Z,12.57
2022-12-08T05:29:30.070Z,11.50
2022-12-08T05:31:56.923Z,11.52
2022-12-08T05:34:23.885Z,12.33
2022-12-08T05:36:50.832Z,12.43
2022-12-08T05:39:17.678Z,12.20
2022-12-08T05:41:44.655Z,12.88
2022-12-08T05:44:11.427Z,12.77
2022-12-08T05:46:38.353Z,12.87
2022-12-08T05:49:05.428Z,13.35
2022-12-08T05:51:32.386Z,12.63
2022-12-08T05:53:59.362Z,11.45
2022-12-08T05:56:26.239Z,11.75
2022-12-08T05:58:53.194Z,11.80
2022-12-08T06:01:19.929Z,12.60
2022-12-08T06:03:46.792Z,11.95
2022-12-08T06:06:13.691Z,11.90
2022-12-08T06:08:41.046Z,11.12
2022-12-08T06:11:08.620Z,12.03
2022-12-08T06:13:35.732Z,12.02
2022-12-08T06:16:07.001Z,11.00
2022-12-08T06:18:34.044Z,11.90
2022-12-08T06:21:10.227Z,12.35
2022-12-08T06:23:37.572Z,11.17
2022-12-08T06:26:15.749Z,11.60
2022-12-08T06:28:44.131Z,12.35
2022-12-08T06:31:17.351Z,11.98
2022-12-08T06:33:45.036Z,13.25
2022-12-08T06:36:13.708Z,13.27
2022-12-08T06:38:43.655Z,13.02
2022-12-08T06:41:12.164Z,13.82
2022-12-08T06:43:39.257Z,14.45
2022-12-08T06:46:09.364Z,14.07
2022-12-08T06:48:36.869Z,13.23
2022-12-08T06:51:11.568Z,14.07
2022-12-08T06:53:39.141Z,15.30
2022-12-08T06:56:06.313Z,14.95
2022-12-08T06:58:34.028Z,14.00
2022-12-08T07:01:09.164Z,14.63
2022-12-08T07:03:37.941Z,17.77
2022-12-08T07:06:05.491Z,18.50
2022-12-08T07:08:33.866Z,18.62
2022-12-08T07:11:06.877Z,18.77
2022-12-08T07:13:33.729Z,18.80
2022-12-08T07:16:00.529Z,17.67
2022-12-08T07:18:27.299Z,17.05
2022-12-08T07:20:54.104Z,16.87
2022-12-08T07:23:21.068Z,17.55
2022-12-08T07:25:47.906Z,17.00
2022-12-08T07:28:14.773Z,16.02
2022-12-08T07:30:41.682Z,16.37
2022-12-08T07:33:08.564Z,15.50
2022-12-08T07:35:35.670Z,15.15
2022-12-08T07:38:02.805Z,14.50
2022-12-08T07:40:29.802Z,16.08
2022-12-08T07:42:56.729Z,15.55
2022-12-08T07:45:29.792Z,19.52
2022-12-08T07:47:58.222Z,37.00
2022-12-08T07:50:25.107Z,33.80
2022-12-08T07:52:51.888Z,20.40
2022-12-08T07:55:18.784Z,17.08
2022-12-08T07:57:45.583Z,14.50
2022-12-08T08:00:13.137Z,14.63
2022-12-08T08:02:42.832Z,16.33
2022-12-08T08:05:10.465Z,18.48
2022-12-08T08:07:37.428Z,15.73
2022-12-08T08:10:05.674Z,16.73
2022-12-08T08:12:33.152Z,18.65
2022-12-08T08:15:01.375Z,18.67
2022-12-08T08:17:29.614Z,19.08
2022-12-08T08:19:56.865Z,17.37
2022-12-08T08:22:25.193Z,15.95
2022-12-08T08:24:52.240Z,14.18
2022-12-08T08:27:19.545Z,14.00
2022-12-08T08:29:46.705Z,14.60
2022-12-08T08:32:13.558Z,14.27
2022-12-08T08:34:40.391Z,14.68
2022-12-08T08:37:07.299Z,16.15
2022-12-08T08:39:34.295Z,15.40
2022-12-08T08:42:01.086Z,16.05
2022-12-08T08:44:27.948Z,15.40
2022-12-08T08:46:54.820Z,15.85
2022-12-08T08:49:21.774Z,15.00
2022-12-08T08:51:48.660Z,15.33
2022-12-08T08:54:15.842Z,16.35
2022-12-08T08:56:42.706Z,15.57
2022-12-08T08:59:09.750Z,14.57
2022-12-08T09:01:36.939Z,15.73
2022-12-08T09:04:04.526Z,15.10
2022-12-08T09:06:31.586Z,16.20
2022-12-08T09:08:58.527Z,17.17
2022-12-08T09:11:25.781Z,17.62
2022-12-08T09:13:54.182Z,18.08
2022-12-08T09:16:21.453Z,17.60
2022-12-08T09:18:49.598Z,15.38
2022-12-08T09:21:23.246Z,15.57
2022-12-08T09:23:51.796Z,15.65
2022-12-08T09:26:22.369Z,14.15
2022-12-08T09:28:51.227Z,14.20
2022-12-08T09:31:19.932Z,14.93
2022-12-08T09:33:47.725Z,12.88
2022-12-08T09:36:14.891Z,12.02
2022-12-08T09:38:42.641Z,11.90
2022-12-08T09:41:37.604Z,12.07
2022-12-08T09:44:20.277Z,11.52
2022-12-08T09:46:51.304Z,11.07
2022-12-08T09:49:22.417Z,11.63
2022-12-08T09:51:53.119Z,11.38
2022-12-08T09:54:25.690Z,12.13
2022-12-08T09:56:59.551Z,11.25
2022-12-08T09:59:31.788Z,11.40
2022-12-08T10:02:00.833Z,12.23
2022-12-08T10:04:38.476Z,13.18
2022-12-08T10:07:20.735Z,11.70
2022-12-08T10:09:59.896Z,11.82
2022-12-08T10:13:16.280Z,11.60
2022-12-08T10:15:51.907Z,11.00
2022-12-08T10:18:34.124Z,11.25
2022-12-08T10:21:22.333Z,11.20
2022-12-08T10:23:54.521Z,11.32
2022-12-08T10:26:22.572Z,11.57
2022-12-08T10:28:49.628Z,11.68
2022-12-08T10:31:24.107Z,11.52
2022-12-08T10:34:05.828Z,11.90
2022-12-08T10:36:51.013Z,10.98
2022-12-08T10:39:34.725Z,10.82
2022-12-08T10:42:07.018Z,11.52
2022-12-08T10:44:40.311Z,11.70
2022-12-08T10:47:13.778Z,12.77
2022-12-08T10:49:41.440Z,11.63
2022-12-08T10:52:24.500Z,12.60
2022-12-08T10:54:54.577Z,12.00
2022-12-08T10:57:23.751Z,11.20
2022-12-08T10:59:58.367Z,10.90
2022-12-08T11:02:25.324Z,11.05
2022-12-08T11:05:01.394Z,9.73
2022-12-08T11:07:28.688Z,10.63
2022-12-08T11:09:58.326Z,10.27
2022-12-08T11:12:29.499Z,9.87
2022-12-08T11:15:03.370Z,10.27
2022-12-08T11:17:39.421Z,9.93
2022-12-08T11:20:09.730Z,9.60
2022-12-08T11:22:42.780Z,10.57
2022-12-08T11:25:12.433Z,10.70
2022-12-08T11:27:44.701Z,10.98
2022-12-08T11:30:18.535Z,10.30
2022-12-08T11:32:48.821Z,9.57
2022-12-08T11:35:26.979Z,10.55
2022-12-08T11:38:13.483Z,9.63
2022-12-08T11:40:44.860Z,8.95
2022-12-08T11:43:36.111Z,8.95
2022-12-08T11:46:11.136Z,9.43
2022-12-08T11:49:04.370Z,9.93
2022-12-08T11:51:34.687Z,9.60
2022-12-08T11:54:24.125Z,9.63
2022-12-08T11:56:58.756Z,9.80
2022-12-08T11:59:38.124Z,10.32
2022-12-08T12:02:06.349Z,10.30
2022-12-08T12:04:43.677Z,10.73
2022-12-08T12:07:32.414Z,10.50
2022-12-08T12:10:24.460Z,10.00
2022-12-08T12:12:51.187Z,10.13
2022-12-08T12:15:37.040Z,10.15
2022-12-08T12:18:22.208Z,10.60
2022-12-08T12:21:11.624Z,9.93
2022-12-08T12:24:01.590Z,10.48
2022-12-08T12:26:31.195Z,9.27
2022-12-08T12:29:03.525Z,8.77
2022-12-08T12:31:35.561Z,10.87
2022-12-08T12:34:15.453Z,10.07
2022-12-08T12:36:52.835Z,10.27
2022-12-08T12:39:25.178Z,9.90
2022-12-08T12:42:03.404Z,9.27
2022-12-08T12:44:32.841Z,8.97
2022-12-08T12:47:02.159Z,9.25
2022-12-08T12:49:41.122Z,9.40
2022-12-08T12:52:16.743Z,8.95
2022-12-08T12:54:49.465Z,8.57
2022-12-08T12:57:23.800Z,8.77
2022-12-08T12:59:55.922Z,8.50
2022-12-08T13:02:26.216Z,9.05
2022-12-08T13:05:01.061Z,9.02
2022-12-08T13:07:32.589Z,9.68
2022-12-08T13:10:11.227Z,9.30
2022-12-08T13:12:38.202Z,8.95
2022-12-08T13:15:07.191Z,9.43
2022-12-08T13:17:37.345Z,8.35
2022-12-08T13:20:07.295Z,8.93
2022-12-08T13:23:25.135Z,9.47
2022-12-08T13:25:53.213Z,9.18
2022-12-08T13:28:26.211Z,9.27
2022-12-08T13:30:56.709Z,10.02
2022-12-08T13:33:39.468Z,11.05
2022-12-08T13:36:25.678Z,11.20
2022-12-08T13:38:58.832Z,11.55
2022-12-08T13:41:38.665Z,11.60
2022-12-08T13:58:44.506Z,11.40
2022-12-08T14:01:20.393Z,10.45
2022-12-08T14:06:46.718Z,11.12
2022-12-08T14:09:22.548Z,11.38
2022-12-08T14:11:55.776Z,11.35
2022-12-08T14:15:01.282Z,12.00
2022-12-08T14:17:21.835Z,11.20
2022-12-08T14:20:06.685Z,11.55
2022-12-08T14:22:38.647Z,10.82
2022-12-08T14:25:08.641Z,10.90
2022-12-08T14:27:37.794Z,10.68
2022-12-08T14:30:16.820Z,11.73
2022-12-08T14:32:45.086Z,12.43
2022-12-08T14:35:24.000Z,13.90
2022-12-08T14:37:55.596Z,14.60
2022-12-08T14:40:34.752Z,14.77
2022-12-08T14:43:07.566Z,15.27
2022-12-08T14:45:40.604Z,14.23
2022-12-08T14:48:38.481Z,14.38
2022-12-08T14:51:20.902Z,13.02
2022-12-08T14:53:58.909Z,12.52
2022-12-08T14:56:41.201Z,13.57
2022-12-08T14:59:15.446Z,15.07
2022-12-08T15:01:43.750Z,15.23
2022-12-08T15:04:15.033Z,14.38
2022-12-08T15:06:54.480Z,11.90
2022-12-08T15:09:36.691Z,12.87
2022-12-08T15:12:15.956Z,13.40
2022-12-08T15:15:18.367Z,11.77
2022-12-08T15:17:50.312Z,12.23
2022-12-08T15:20:39.513Z,12.07
2022-12-08T15:23:17.765Z,11.53
2022-12-08T15:25:44.800Z,12.25
2022-12-08T15:28:17.675Z,13.15
2022-12-08T15:30:44.637Z,12.48
2022-12-08T15:33:11.506Z,11.55
2022-12-08T15:35:40.869Z,11.50
2022-12-08T15:38:26.069Z,11.88
2022-12-08T15:40:54.493Z,11.68
2022-12-08T15:43:22.253Z,11.73
2022-12-08T15:45:58.509Z,12.70
2022-12-08T15:48:28.888Z,12.77
2022-12-08T15:50:56.794Z,12.52
2022-12-08T15:53:23.746Z,13.85
2022-12-08T15:56:19.016Z,15.52
2022-12-08T15:58:53.421Z,15.82
2022-12-08T16:01:21.811Z,16.63
2022-12-08T16:09:49.389Z,13.45
2022-12-08T16:15:51.694Z,12.53
2022-12-08T16:18:26.409Z,12.37
2022-12-08T16:23:43.732Z,14.52
2022-12-08T16:29:02.784Z,13.43
2022-12-08T16:31:29.671Z,14.45
2022-12-08T16:33:56.953Z,16.25
2022-12-08T16:36:23.828Z,15.88
2022-12-08T16:38:51.333Z,17.67
2022-12-08T16:41:36.796Z,16.73
2022-12-08T16:44:06.095Z,14.02
2022-12-08T16:46:33.928Z,12.60
2022-12-08T16:49:00.960Z,11.00
2022-12-08T16:51:27.950Z,13.27
2022-12-08T16:53:57.051Z,11.70
2022-12-08T16:56:29.012Z,11.73
2022-12-08T16:58:59.499Z,12.43
2022-12-08T17:01:26.890Z,12.75
2022-12-08T17:04:29.133Z,12.43
2022-12-08T17:06:41.094Z,11.03
2022-12-08T17:09:08.119Z,13.02
2022-12-08T17:11:40.769Z,12.98
2022-12-08T17:14:10.389Z,14.10
2022-12-08T17:16:37.509Z,14.77
2022-12-08T17:19:04.448Z,12.77
2022-12-08T17:21:32.255Z,13.75
2022-12-08T17:23:59.243Z,13.50
2022-12-08T17:26:26.154Z,14.43
2022-12-08T17:29:01.574Z,13.40
2022-12-08T17:31:32.056Z,14.13
2022-12-08T17:34:01.538Z,14.82
2022-12-08T17:36:28.962Z,14.65
2022-12-08T17:38:58.308Z,14.63
2022-12-08T17:41:27.730Z,15.30
2022-12-08T17:43:55.428Z,15.87
2022-12-08T17:46:24.430Z,15.32
2022-12-08T17:48:52.195Z,16.27
2022-12-08T17:51:19.939Z,16.75
2022-12-08T17:53:46.909Z,16.33
2022-12-08T17:56:21.330Z,16.17
2022-12-08T17:58:54.223Z,14.75
2022-12-08T18:01:23.071Z,14.80
2022-12-08T18:03:50.651Z,15.48
2022-12-08T18:06:17.884Z,16.58
2022-12-08T18:08:45.625Z,17.63
2022-12-08T18:11:19.170Z,17.45
2022-12-08T18:13:48.501Z,19.25
2022-12-08T18:16:16.644Z,17.73
2022-12-08T18:18:44.347Z,16.70
2022-12-08T18:21:11.349Z,16.17
2022-12-08T18:23:40.072Z,16.90
2022-12-08T18:26:09.451Z,15.80
2022-12-08T18:28:38.145Z,15.55
2022-12-08T18:31:13.983Z,14.93
2022-12-08T18:33:43.389Z,14.53
2022-12-08T18:36:17.261Z,14.60
2022-12-08T18:38:45.403Z,15.27
2022-12-08T18:41:15.103Z,15.30
2022-12-08T18:43:42.822Z,16.40
2022-12-08T18:46:13.517Z,15.80
2022-12-08T18:48:46.312Z,17.90
2022-12-08T18:51:18.193Z,17.20
2022-12-08T18:53:46.861Z,17.50
2022-12-08T18:56:23.802Z,16.05
2022-12-08T18:58:51.240Z,15.60
2022-12-08T19:01:20.527Z,14.57
2022-12-08T19:04:05.116Z,14.60
2022-12-08T19:06:39.333Z,13.20
2022-12-08T19:09:09.253Z,14.60
2022-12-08T19:11:36.800Z,13.67
2022-12-08T19:14:07.897Z,14.27
2022-12-08T19:16:39.004Z,13.48
2022-12-08T19:19:06.717Z,12.95
2022-12-08T19:21:34.761Z,14.10
2022-12-08T19:24:02.501Z,12.40
2022-12-08T19:26:30.007Z,11.80
2022-12-08T19:28:58.549Z,11.35
2022-12-08T19:31:26.541Z,12.65
2022-12-08T19:33:54.478Z,11.95
2022-12-08T19:36:23.307Z,15.97
2022-12-08T19:39:12.914Z,22.58
2022-12-08T19:41:58.714Z,25.20
2022-12-08T19:44:35.062Z,24.58
2022-12-08T19:47:02.935Z,18.58
2022-12-08T19:49:31.075Z,18.33
2022-12-08T19:51:59.143Z,17.15
2022-12-08T19:54:27.200Z,15.70
2022-12-08T19:56:54.443Z,16.50
2022-12-08T19:59:22.801Z,17.00
2022-12-08T20:01:51.710Z,16.10
2022-12-08T20:04:19.998Z,16.55
2022-12-08T20:06:48.232Z,17.70
2022-12-08T20:09:16.270Z,16.52
2022-12-08T20:11:47.194Z,16.33
2022-12-08T20:14:14.979Z,13.40
2022-12-08T20:16:43.804Z,12.82
2022-12-08T20:19:11.814Z,14.15
2022-12-08T20:21:40.225Z,10.30
2022-12-08T20:24:07.821Z,10.80
2022-12-08T20:26:36.076Z,10.13
2022-12-08T20:29:05.085Z,11.00
2022-12-08T20:31:34.285Z,10.57
2022-12-08T20:34:01.748Z,10.73
2022-12-08T20:36:29.750Z,9.80
2022-12-08T20:38:58.181Z,9.60
2022-12-08T20:41:26.025Z,11.40
2022-12-08T20:43:54.631Z,10.40
2022-12-08T20:46:22.509Z,10.57
2022-12-08T20:48:50.057Z,10.20
2022-12-08T20:51:19.901Z,10.03
2022-12-08T20:53:47.909Z,10.57
2022-12-08T20:56:17.608Z,10.77
2022-12-08T20:58:45.474Z,11.85
2022-12-08T21:01:14.522Z,11.32
2022-12-08T21:03:43.108Z,11.30
2022-12-08T21:06:11.270Z,10.55
2022-12-08T21:08:39.436Z,11.68
2022-12-08T21:11:08.254Z,11.88
2022-12-08T21:13:38.587Z,11.73
2022-12-08T21:16:06.634Z,13.13
2022-12-08T21:18:39.210Z,11.80
2022-12-08T21:21:10.984Z,11.77
2022-12-08T21:23:38.148Z,11.70
2022-12-08T21:26:14.655Z,11.18
2022-12-08T21:28:41.933Z,10.20
2022-12-08T21:31:10.443Z,10.85
2022-12-08T21:33:37.958Z,10.57
2022-12-08T21:36:11.795Z,11.07
2022-12-08T21:38:40.094Z,11.07
2022-12-08T21:41:09.757Z,11.73
2022-12-08T21:43:37.220Z,11.20
2022-12-08T21:46:04.715Z,12.32
2022-12-08T21:48:32.973Z,11.80
2022-12-08T21:51:04.983Z,12.13
2022-12-08T21:53:32.136Z,10.93
2022-12-08T21:55:59.167Z,12.32
2022-12-08T21:58:26.413Z,11.18
2022-12-08T22:00:53.574Z,11.70
2022-12-08T22:03:20.725Z,11.63
2022-12-08T22:05:47.784Z,13.23
2022-12-08T22:08:14.846Z,14.68
2022-12-08T22:10:47.340Z,14.05
2022-12-08T22:13:14.547Z,13.65
2022-12-08T22:15:41.565Z,11.75
2022-12-08T22:18:09.298Z,11.57
2022-12-08T22:20:42.341Z,11.88
2022-12-08T22:23:11.067Z,11.32
2022-12-08T22:25:38.047Z,10.88
2022-12-08T22:28:05.469Z,11.80
2022-12-08T22:30:38.677Z,11.33
2022-12-08T22:33:06.109Z,11.70
2022-12-08T22:35:32.981Z,11.45
2022-12-08T22:38:00.036Z,10.45
2022-12-08T22:40:26.904Z,10.13
2022-12-08T22:42:53.850Z,10.70
2022-12-08T22:45:20.763Z,11.55
2022-12-08T22:47:47.797Z,11.88
2022-12-08T22:50:48.717Z,11.57
2022-12-08T22:53:15.625Z,11.50
2022-12-08T22:55:44.204Z,12.20
2022-12-08T22:58:12.298Z,11.88
2022-12-08T23:00:39.601Z,12.98
2022-12-08T23:03:06.574Z,12.68
2022-12-08T23:05:35.391Z,15.55
2022-12-08T23:08:03.600Z,14.60
2022-12-08T23:10:30.743Z,13.00
2022-12-08T23:13:03.554Z,13.43
2022-12-08T23:15:31.236Z,12.65
2022-12-08T23:17:59.930Z,11.82
2022-12-08T23:20:26.770Z,10.40
2022-12-08T23:22:53.546Z,11.35
2022-12-08T23:25:20.453Z,10.82
2022-12-08T23:27:48.064Z,11.07
2022-12-08T23:30:15.293Z,10.82
2022-12-08T23:32:42.908Z,11.23
2022-12-08T23:35:10.016Z,11.40
2022-12-08T23:37:37.163Z,14.98
2022-12-08T23:40:05.506Z,14.63
2022-12-08T23:42:33.017Z,13.68
2022-12-08T23:44:59.904Z,12.67
2022-12-08T23:47:27.075Z,14.25
2022-12-08T23:49:54.280Z,13.45
2022-12-08T23:52:21.186Z,13.27
2022-12-08T23:54:50.418Z,12.93
2022-12-08T23:57:17.416Z,12.67
2022-12-08T23:59:44.595Z,12.70
